Time;durP1;ratioP1;P1;durP2;ratioP2;P2;SDS_P1;SDS_P2;PMS_P1;PMS_P2;Temp;Humidity;BMP_temperature;BMP_pressure;BME280_temperature;BME280_humidity;BME280_pressure;Samples;Min_cycle;Max_cycle;Signal;HPM_P1;HPM_P2
2022/05/12 00:01:30;;;;;;;6.00;2.08;;;;;;;-145.69;46.28;70735.84;5075007;28;20222;-76
2022/05/12 00:03:57;;;;;;;3.70;1.85;;;;;;;-145.69;47.00;70719.94;5075426;28;20217;-75
2022/05/12 00:06:24;;;;;;;3.58;1.80;;;;;;;-145.69;46.49;70749.78;5075370;28;20245;-75
2022/05/12 00:08:51;;;;;;;3.08;1.80;;;;;;;-145.69;46.39;70749.78;5075273;28;20256;-75
2022/05/12 00:11:17;;;;;;;2.47;1.83;;;;;;;-145.69;45.77;70743.81;5075126;28;20199;-75
2022/05/12 00:13:43;;;;;;;3.50;1.90;;;;;;;-145.69;46.33;70749.78;5075441;28;20280;-75
2022/05/12 00:16:10;;;;;;;4.03;1.98;;;;;;;-145.69;45.33;70706.00;5073759;28;20195;-75
2022/05/12 00:18:36;;;;;;;5.22;1.90;;;;;;;-145.69;45.06;70715.94;5075243;28;20542;-75
2022/05/12 00:21:03;;;;;;;2.15;1.95;;;;;;;-145.69;45.34;70715.94;5075039;28;20222;-75
2022/05/12 00:23:30;;;;;;;3.17;1.65;;;;;;;-145.69;45.79;70719.94;5074872;28;20203;-75
2022/05/12 00:25:57;;;;;;;4.07;1.88;;;;;;;-145.69;44.83;70709.97;5074752;28;20604;-76
2022/05/12 00:28:27;;;;;;;4.10;1.70;;;;;;;-145.69;44.16;70706.00;5075114;28;20608;-76
2022/05/12 00:30:56;;;;;;;6.35;1.42;;;;;;;-145.69;42.41;70650.28;5074756;28;20233;-76
2022/05/12 00:33:26;;;;;;;3.15;1.70;;;;;;;-145.69;42.77;70670.19;5075166;28;20202;-75
2022/05/12 00:35:53;;;;;;;3.70;1.80;;;;;;;-145.69;42.69;70662.22;5074609;28;20225;-76
2022/05/12 00:38:20;;;;;;;4.38;1.67;;;;;;;-145.69;42.39;70670.19;5074380;28;20257;-76
2022/05/12 00:40:48;;;;;;;4.30;1.55;;;;;;;-145.69;42.59;70694.06;5074780;28;20574;-75
2022/05/12 00:43:37;;;;;;;4.75;1.80;;;;;;;-145.69;41.39;70662.22;5074580;28;20649;-75
2022/05/12 00:46:05;;;;;;;4.60;1.50;;;;;;;-145.69;41.85;70650.28;5074593;28;20202;-75
2022/05/12 00:48:31;;;;;;;2.78;1.50;;;;;;;-145.69;41.80;70678.16;5073831;28;20191;-76
2022/05/12 00:50:58;;;;;;;4.65;1.67;;;;;;;-145.69;41.39;70680.13;5074265;28;20321;-77
2022/05/12 00:53:24;;;;;;;2.88;1.60;;;;;;;-145.69;40.32;70652.28;5074153;28;20530;-75
2022/05/12 00:55:53;;;;;;;4.28;1.45;;;;;;;-145.69;40.71;70672.19;5074469;28;20261;-75
2022/05/12 00:58:22;;;;;;;5.32;2.20;;;;;;;-145.69;40.61;70666.22;5074379;28;20284;-75
2022/05/12 01:00:48;;;;;;;8.93;1.40;;;;;;;-145.69;41.13;70648.31;5074139;28;20288;-75
2022/05/12 01:03:19;;;;;;;7.50;1.52;;;;;;;-145.69;41.42;70674.16;5073816;28;20194;-75
2022/05/12 01:05:46;;;;;;;2.97;1.30;;;;;;;-145.69;41.13;70698.03;5072822;28;20244;-76
2022/05/12 01:08:14;;;;;;;3.55;1.40;;;;;;;-145.69;41.70;70696.06;5056311;28;20192;-75
2022/05/12 01:10:44;;;;;;;2.80;1.48;;;;;;;-145.69;42.14;70735.84;5053965;28;20207;-76
2022/05/12 01:13:12;;;;;;;4.82;1.80;;;;;;;-145.69;40.99;70711.97;5053043;28;20849;-75
2022/05/12 01:15:48;;;;;;;4.25;1.50;;;;;;;-145.69;41.65;70711.97;5053937;28;20203;-75
2022/05/12 01:18:17;;;;;;;6.68;1.40;;;;;;;-145.69;43.87;70777.63;5057282;28;20190;-75
2022/05/12 01:20:44;;;;;;;3.42;1.73;;;;;;;-145.69;42.53;70773.66;5073889;28;20321;-76
2022/05/12 01:23:20;;;;;;;4.93;1.50;;;;;;;-145.69;41.89;70737.84;5073954;28;20264;-75
2022/05/12 01:25:47;;;;;;;4.82;1.98;;;;;;;-145.69;41.72;70725.91;5073621;28;20202;-76
2022/05/12 01:28:13;;;;;;;2.85;1.50;;;;;;;-145.69;42.65;70757.72;5073349;28;20202;-75
2022/05/12 01:30:40;;;;;;;6.65;1.70;;;;;;;-145.69;42.49;70763.69;5073425;28;20645;-75
2022/05/12 01:33:06;;;;;;;2.80;1.42;;;;;;;-145.69;43.16;70773.66;5073768;28;20198;-75
2022/05/12 01:35:32;;;;;;;4.65;1.65;;;;;;;-145.69;43.43;70775.63;5073402;28;20252;-76
2022/05/12 01:38:00;;;;;;;4.78;1.50;;;;;;;-145.69;44.57;70809.47;5073270;28;20281;-76
2022/05/12 01:40:28;;;;;;;4.93;1.30;;;;;;;-145.69;44.71;70837.31;5072868;28;20230;-76
2022/05/12 01:42:55;;;;;;;5.57;1.60;;;;;;;-145.69;43.93;70801.50;5073279;28;20199;-75
2022/05/12 01:45:22;;;;;;;2.60;1.50;;;;;;;-145.69;45.95;70831.34;5073563;28;20202;-76
2022/05/12 01:47:50;;;;;;;4.00;1.70;;;;;;;-145.69;45.86;70839.31;5073510;28;20286;-75
2022/05/12 01:50:18;;;;;;;3.38;1.52;;;;;;;-145.69;46.57;70853.22;5072814;28;20222;-76
2022/05/12 01:52:45;;;;;;;4.32;1.45;;;;;;;-145.69;45.90;70839.31;5073037;28;20553;-75
2022/05/12 01:55:12;;;;;;;6.25;1.55;;;;;;;-145.69;46.56;70865.16;5073299;28;20244;-75
2022/05/12 01:57:42;;;;;;;3.77;1.67;;;;;;;-145.69;46.12;70853.22;5072041;28;20434;-76
2022/05/12 02:00:12;;;;;;;3.83;1.75;;;;;;;-145.69;47.23;70861.19;5073186;28;20264;-76
2022/05/12 02:02:38;;;;;;;4.13;1.90;;;;;;;-145.69;46.99;70861.19;5073156;28;20245;-76
2022/05/12 02:05:09;;;;;;;3.58;1.42;;;;;;;-145.69;48.30;70871.13;5072774;28;20206;-76
2022/05/12 02:07:36;;;;;;;3.58;1.70;;;;;;;-145.69;48.19;70904.97;5072503;28;20195;-75
2022/05/12 02:10:04;;;;;;;3.20;1.50;;;;;;;-145.69;49.21;70932.81;5072624;28;20190;-75
2022/05/12 02:12:30;;;;;;;3.75;1.55;;;;;;;-145.69;49.02;70916.91;5073130;28;20209;-76
2022/05/12 02:14:58;;;;;;;6.60;1.50;;;;;;;-145.69;50.13;70948.72;5072765;28;20203;-76
2022/05/12 02:17:24;;;;;;;7.45;1.70;;;;;;;-145.69;50.87;70980.56;5073183;28;20202;-76
2022/05/12 02:19:51;;;;;;;7.90;1.77;;;;;;;-145.69;51.00;70992.50;5072836;28;20600;-76
2022/05/12 02:22:17;;;;;;;3.72;1.70;;;;;;;-145.69;52.31;71020.34;5072446;28;20264;-76
2022/05/12 02:24:44;;;;;;;6.18;1.77;;;;;;;-145.69;53.28;71046.22;5072788;28;20600;-76
2022/05/12 02:27:10;;;;;;;5.10;1.75;;;;;;;-145.69;54.20;71064.13;5072732;28;20214;-76
2022/05/12 02:29:36;;;;;;;2.67;1.50;;;;;;;-145.69;54.50;71066.13;5072836;28;20199;-76
2022/05/12 02:32:05;;;;;;;3.78;2.05;;;;;;;-145.69;54.13;71066.13;5072986;28;20209;-76
2022/05/12 02:34:31;;;;;;;7.25;1.70;;;;;;;-145.69;53.99;71076.06;5072750;28;20195;-75
2022/05/12 02:37:01;;;;;;;4.72;1.98;;;;;;;-145.69;53.97;71070.09;5072427;28;20207;-75
2022/05/12 02:39:28;;;;;;;3.88;1.77;;;;;;;-145.69;53.23;71026.31;5072761;28;20199;-76
2022/05/12 02:41:56;;;;;;;5.53;2.10;;;;;;;-145.69;53.95;71038.25;5076937;28;20254;-75
2022/05/12 02:44:23;;;;;;;5.60;1.55;;;;;;;-145.69;54.33;71048.22;5076805;28;20585;-76
2022/05/12 02:46:52;;;;;;;3.40;1.88;;;;;;;-145.69;54.27;71044.22;5076947;28;20198;-75
2022/05/12 02:49:24;;;;;;;2.83;1.50;;;;;;;-145.69;53.58;71056.16;5076458;28;20336;-75
2022/05/12 02:51:51;;;;;;;3.40;1.55;;;;;;;-145.69;55.81;71095.97;5076688;28;20293;-75
2022/05/12 02:54:19;;;;;;;8.20;2.03;;;;;;;-145.69;55.04;71060.16;5076514;28;20195;-76
2022/05/12 02:56:46;;;;;;;5.82;1.90;;;;;;;-145.69;55.57;71068.13;5056952;28;20210;-76
2022/05/12 02:59:13;;;;;;;6.72;2.03;;;;;;;-145.69;54.36;71054.19;5056383;28;20199;-76
2022/05/12 03:01:40;;;;;;;5.57;1.80;;;;;;;-145.69;55.98;71090.00;5056117;28;20231;-75
2022/05/12 03:04:06;;;;;;;3.72;1.85;;;;;;;-145.69;57.62;71103.94;5065767;28;20225;-75
2022/05/12 03:06:34;;;;;;;3.10;1.73;;;;;;;-145.69;55.21;71068.13;5076319;28;20199;-76
2022/05/12 03:09:01;;;;;;;10.27;1.90;;;;;;;-145.69;56.71;71105.91;5057582;28;20207;-76
2022/05/12 03:11:28;;;;;;;3.45;1.90;;;;;;;-145.69;58.58;71129.78;5073483;28;20701;-75
2022/05/12 03:13:55;;;;;;;4.28;2.00;;;;;;;-145.69;59.37;71151.69;5076393;28;20237;-76
2022/05/12 03:16:22;;;;;;;7.88;2.30;;;;;;;-145.69;59.71;71157.66;5076152;28;20206;-75
2022/05/12 03:18:51;;;;;;;2.60;1.70;;;;;;;-145.69;56.52;71103.94;5076016;28;20206;-76
2022/05/12 03:21:17;;;;;;;6.45;2.13;;;;;;;-145.69;56.14;71088.00;5076185;28;20303;-76
2022/05/12 03:23:45;;;;;;;4.70;1.70;;;;;;;-145.69;57.09;71092.00;5076337;28;20202;-76
2022/05/12 03:26:12;;;;;;;4.55;2.10;;;;;;;-145.69;58.62;71111.88;5075687;28;20685;-75
2022/05/12 03:28:39;;;;;;;7.43;2.22;;;;;;;-145.69;58.35;71127.81;5075955;28;20207;-76
2022/05/12 03:31:09;;;;;;;11.13;2.10;;;;;;;-145.69;60.09;71159.63;5075839;28;20675;-75
2022/05/12 03:33:36;;;;;;;5.38;1.98;;;;;;;-145.69;61.29;71193.47;5075875;28;20215;-75
2022/05/12 03:36:04;;;;;;;3.95;1.90;;;;;;;-145.69;62.80;71223.31;5075951;28;20202;-75
2022/05/12 03:38:30;;;;;;;5.88;2.00;;;;;;;-145.69;65.10;71251.16;5075553;28;20202;-76
2022/05/12 03:40:58;;;;;;;7.78;2.00;;;;;;;-145.69;67.08;71265.09;5075506;28;20685;-76
2022/05/12 03:46:09;;;;;;;3.42;2.00;;;;;;;-145.69;70.75;71302.91;5075566;28;20702;-75
2022/05/12 03:48:38;;;;;;;6.10;2.30;;;;;;;-145.69;75.15;71332.75;5075620;28;20256;-75
2022/05/12 03:51:05;;;;;;;6.10;2.20;;;;;;;-145.69;72.26;71340.72;5074809;28;20234;-76
2022/05/12 03:53:32;;;;;;;12.00;2.17;;;;;;;-145.69;75.67;71334.75;5075672;28;20207;-76
2022/05/12 03:56:00;;;;;;;6.00;2.17;;;;;;;-145.69;78.62;71358.63;5075483;28;20202;-75
2022/05/12 03:58:27;;;;;;;6.22;2.28;;;;;;;-145.69;78.53;71374.53;5075070;28;20244;-75
2022/05/12 04:00:54;;;;;;;8.95;2.67;;;;;;;-145.69;80.34;71388.47;5075466;28;20227;-76
2022/05/12 04:03:21;;;;;;;5.97;2.10;;;;;;;-145.69;80.60;71378.50;5075467;28;20202;-76
2022/05/12 04:05:48;;;;;;;5.82;2.35;;;;;;;-145.69;81.19;71390.47;5075499;28;20209;-76
2022/05/12 04:08:14;;;;;;;5.55;2.53;;;;;;;-145.69;79.95;71382.50;5075281;28;20244;-75
2022/05/12 04:10:41;;;;;;;7.22;2.60;;;;;;;-145.69;80.88;71392.44;5075230;28;20202;-76
2022/05/12 04:13:10;;;;;;;5.20;2.70;;;;;;;-145.69;83.29;71402.41;5074872;28;20252;-76
2022/05/12 04:15:36;;;;;;;6.60;2.05;;;;;;;-145.69;84.85;71408.38;5075274;28;20284;-75
2022/05/12 04:18:06;;;;;;;6.70;2.90;;;;;;;-145.69;86.27;71412.34;5074896;28;20649;-75
2022/05/12 04:20:35;;;;;;;8.57;2.78;;;;;;;-145.69;87.93;71428.25;5074815;28;20264;-75
2022/05/12 04:23:01;;;;;;;9.60;2.70;;;;;;;-145.69;86.73;71434.22;5074866;28;20712;-75
2022/05/12 04:25:30;;;;;;;6.60;3.00;;;;;;;-145.69;86.83;71430.25;5074304;28;20542;-75
2022/05/12 04:27:59;;;;;;;6.00;2.42;;;;;;;-145.69;86.34;71428.25;5074812;28;20649;-76
2022/05/12 04:30:27;;;;;;;5.03;2.43;;;;;;;-145.69;86.64;71430.25;5075011;28;20207;-75
2022/05/12 04:32:55;;;;;;;3.45;2.13;;;;;;;-145.69;87.51;71432.25;5074888;28;20202;-75
2022/05/12 04:35:23;;;;;;;9.82;2.50;;;;;;;-145.69;87.32;71426.28;5074435;28;20194;-75
2022/05/12 04:37:52;;;;;;;6.70;3.42;;;;;;;-145.69;86.92;71418.31;5074658;28;20234;-76
2022/05/12 04:40:21;;;;;;;12.43;2.30;;;;;;;-145.69;86.44;71422.28;5074453;28;20252;-76
2022/05/12 04:42:48;;;;;;;3.85;2.30;;;;;;;-145.69;87.33;71424.28;5074376;28;20227;-74
2022/05/12 04:45:16;;;;;;;5.85;3.10;;;;;;;-145.69;88.45;71422.28;5074755;28;20195;-75
2022/05/12 04:47:45;;;;;;;5.65;2.67;;;;;;;-145.69;91.18;71430.25;5074682;28;20570;-75
2022/05/12 04:50:13;;;;;;;5.87;2.63;;;;;;;-145.69;93.17;71432.25;5074240;28;20226;-76
2022/05/12 04:52:40;;;;;;;5.07;3.07;;;;;;;-145.69;91.39;71420.31;5074057;28;20203;-76
2022/05/12 04:55:07;;;;;;;4.82;2.85;;;;;;;-145.69;91.35;71406.38;5074514;28;20539;-76
2022/05/12 04:57:38;;;;;;;10.63;2.97;;;;;;;-145.69;91.42;71402.41;5074299;28;20222;-76
2022/05/12 05:00:07;;;;;;;10.18;2.72;;;;;;;-145.69;89.22;71386.47;5074386;28;20207;-76
2022/05/12 05:02:33;;;;;;;6.28;2.67;;;;;;;-145.69;90.81;71386.47;5064474;28;20272;-75
2022/05/12 05:05:01;;;;;;;3.65;2.58;;;;;;;-145.69;89.89;71372.53;5054134;28;20203;-75
2022/05/12 05:07:28;;;;;;;5.63;2.50;;;;;;;-145.69;90.28;71374.53;5059984;28;20256;-75
2022/05/12 05:09:56;;;;;;;10.07;2.70;;;;;;;-145.69;88.43;71370.56;5074219;28;20206;-76
2022/05/12 05:12:23;;;;;;;6.72;2.72;;;;;;;-145.69;87.21;71362.59;5074142;28;20205;-75
2022/05/12 05:14:49;;;;;;;4.82;2.97;;;;;;;-145.69;88.39;71366.56;5073927;28;20210;-75
2022/05/12 05:17:19;;;;;;;9.05;2.80;;;;;;;-145.69;89.99;71364.59;5074008;28;20195;-76
2022/05/12 05:19:47;;;;;;;5.70;2.80;;;;;;;-145.69;88.82;71366.56;5073762;28;20203;-76
2022/05/12 05:22:15;;;;;;;5.43;2.55;;;;;;;-145.69;89.40;71364.59;5074007;28;20585;-75
2022/05/12 05:24:42;;;;;;;8.65;2.85;;;;;;;-145.69;90.54;71362.59;5073565;28;20199;-76
2022/05/12 05:27:09;;;;;;;10.85;3.53;;;;;;;-145.69;91.97;71360.59;5073464;28;20217;-75
2022/05/12 05:29:39;;;;;;;5.03;2.45;;;;;;;-145.69;90.73;71362.59;5073816;28;20198;-76
2022/05/12 05:32:06;;;;;;;9.82;2.80;;;;;;;-145.69;92.07;71342.69;5073556;28;20202;-76
2022/05/12 05:34:35;;;;;;;7.03;2.95;;;;;;;-145.69;91.94;71342.69;5073639;28;20611;-76
2022/05/12 05:37:01;;;;;;;7.40;2.65;;;;;;;-145.69;88.89;71288.97;5073373;28;20194;-76
2022/05/12 05:39:32;;;;;;;10.77;2.80;;;;;;;-145.69;83.72;71231.28;5073071;28;20202;-76
2022/05/12 05:42:01;;;;;;;3.70;2.42;;;;;;;-145.69;81.11;71151.69;5073479;28;20227;-76
2022/05/12 05:44:32;;;;;;;4.05;2.30;;;;;;;-145.69;78.16;71092.00;5073174;28;20195;-76
2022/05/12 05:46:59;;;;;;;3.47;2.40;;;;;;;-145.69;76.31;71064.13;5073364;28;20195;-76
2022/05/12 05:49:25;;;;;;;4.65;2.50;;;;;;;-145.69;75.24;71084.03;5073206;28;20321;-76
2022/05/12 05:54:39;;;;;;;5.57;2.25;;;;;;;-145.69;73.70;71095.97;5073105;28;20198;-75
2022/05/12 05:57:06;;;;;;;5.55;2.40;;;;;;;-145.69;80.77;71105.91;5073137;28;20206;-76
2022/05/12 05:59:32;;;;;;;5.28;2.67;;;;;;;-145.69;72.08;71086.03;5073156;28;20324;-76
2022/05/12 06:01:59;;;;;;;4.80;2.20;;;;;;;-145.69;71.92;71070.09;5073232;28;20544;-75
2022/05/12 06:04:29;;;;;;;6.30;2.30;;;;;;;-145.69;74.58;71012.41;5073043;28;20199;-76
2022/05/12 06:06:56;;;;;;;6.13;2.25;;;;;;;-145.69;70.23;71000.47;5073217;28;20203;-76
2022/05/12 06:09:41;;;;;;;6.32;2.20;;;;;;;-145.69;65.36;71008.41;5073152;28;20248;-78
2022/05/12 06:12:08;;;;;;;5.88;2.00;;;;;;;-145.69;67.80;70984.53;5072820;28;20651;-75
2022/05/12 06:14:35;;;;;;;8.10;2.55;;;;;;;-145.69;62.78;70972.59;5073150;28;20290;-75
2022/05/12 06:17:01;;;;;;;8.32;2.13;;;;;;;-145.69;64.39;70970.63;5073038;28;20206;-74
2022/05/12 06:19:28;;;;;;;3.88;2.00;;;;;;;-145.69;61.72;70962.66;5072966;28;20247;-75
2022/05/12 06:21:54;;;;;;;9.27;2.75;;;;;;;-145.69;63.65;70948.72;5072962;28;20223;-75
2022/05/12 06:24:21;;;;;;;7.57;2.40;;;;;;;-145.69;61.67;70934.81;5072783;28;20199;-75
2022/05/12 06:26:49;;;;;;;9.40;2.47;;;;;;;-145.69;60.59;70922.88;5072804;28;20193;-75
2022/05/12 06:29:15;;;;;;;7.03;2.05;;;;;;;-145.69;60.07;70936.78;5072868;28;20665;-75
2022/05/12 06:31:42;;;;;;;7.63;2.45;;;;;;;-145.69;58.91;70928.84;5073033;28;20203;-75
2022/05/12 06:34:08;;;;;;;7.25;2.70;;;;;;;-145.69;61.09;70922.88;5071612;28;20880;-75
2022/05/12 06:36:35;;;;;;;4.93;2.22;;;;;;;-145.69;60.92;70893.03;5072806;28;20202;-75
2022/05/12 06:39:01;;;;;;;6.13;2.40;;;;;;;-145.69;59.11;70914.91;5072324;28;20703;-75
2022/05/12 06:41:30;;;;;;;11.48;2.80;;;;;;;-145.69;57.85;70900.97;5072828;28;20199;-75
2022/05/12 06:43:57;;;;;;;9.95;2.10;;;;;;;-145.69;58.86;70928.84;5072647;28;20256;-75
2022/05/12 06:46:25;;;;;;;3.83;2.10;;;;;;;-145.69;57.77;70930.81;5072475;28;20229;-75
2022/05/12 06:48:52;;;;;;;5.88;2.00;;;;;;;-145.69;59.66;70916.91;5072582;28;20223;-74
2022/05/12 06:51:19;;;;;;;5.53;2.00;;;;;;;-145.69;56.62;70910.94;5072617;28;20214;-74
2022/05/12 06:53:46;;;;;;;5.70;2.17;;;;;;;-145.69;59.15;70936.78;5072844;28;20211;-75
2022/05/12 06:56:13;;;;;;;6.18;2.35;;;;;;;-145.69;59.26;70914.91;5072566;28;20653;-75
2022/05/12 06:58:40;;;;;;;10.52;2.60;;;;;;;-145.69;58.63;70871.13;5072184;28;20187;-75
2022/05/12 07:01:09;;;;;;;12.65;2.63;;;;;;;-145.69;59.29;70865.16;5072530;28;20203;-75
2022/05/12 07:03:35;;;;;;;6.47;2.67;;;;;;;-145.69;59.61;70875.13;5072480;28;20223;-75
2022/05/12 07:06:02;;;;;;;5.95;2.60;;;;;;;-145.69;59.19;70863.19;5072411;28;20210;-74
2022/05/12 07:08:29;;;;;;;4.80;2.45;;;;;;;-145.69;58.84;70853.22;5072540;28;20263;-74
2022/05/12 07:10:55;;;;;;;5.38;2.30;;;;;;;-145.69;57.88;70851.25;5071684;28;20206;-75
2022/05/12 07:13:24;;;;;;;8.18;2.78;;;;;;;-145.69;58.37;70831.34;5054519;28;20199;-74
2022/05/12 07:15:51;;;;;;;6.15;2.75;;;;;;;-145.69;57.13;70853.22;5052374;28;20265;-75
2022/05/12 07:18:20;;;;;;;10.20;2.60;;;;;;;-145.69;55.42;70869.16;5052237;28;20196;-75
2022/05/12 07:26:40;;;;;;;6.28;2.38;;;;;;;-145.69;56.94;70873.13;5049963;28;20201;-75
2022/05/12 07:29:09;;;;;;;6.63;2.83;;;;;;;-145.69;58.97;70869.16;5076092;28;20199;-74
2022/05/12 07:31:36;;;;;;;5.22;2.58;;;;;;;-145.69;55.92;70867.16;5076237;28;20201;-75
2022/05/12 07:34:05;;;;;;;7.30;2.53;;;;;;;-145.69;56.36;70855.22;5076160;28;20199;-74
2022/05/12 07:36:33;;;;;;;4.65;2.13;;;;;;;-145.69;55.40;70847.25;5076058;28;20256;-75
2022/05/12 07:39:01;;;;;;;8.68;2.22;;;;;;;-145.69;56.82;70841.28;5075504;28;20595;-74
2022/05/12 07:41:28;;;;;;;3.55;2.30;;;;;;;-145.69;55.57;70825.38;5075746;28;20257;-74
2022/05/12 07:43:55;;;;;;;8.13;2.55;;;;;;;-145.69;55.82;70807.47;5075877;28;20280;-76
2022/05/12 07:46:24;;;;;;;8.18;2.50;;;;;;;-145.69;57.68;70779.63;5075742;28;20195;-75
2022/05/12 07:48:51;;;;;;;7.32;2.60;;;;;;;-145.69;56.02;70781.59;5075675;28;20203;-75
2022/05/12 07:51:20;;;;;;;5.28;2.60;;;;;;;-145.69;56.05;70771.66;5075599;28;20672;-75
2022/05/12 07:53:47;;;;;;;9.02;2.40;;;;;;;-145.69;59.40;70773.66;5075238;28;20203;-74
2022/05/12 07:56:15;;;;;;;6.05;2.40;;;;;;;-145.69;56.50;70761.72;5075345;28;20198;-75
2022/05/12 07:58:42;;;;;;;7.22;2.92;;;;;;;-145.69;54.33;70773.66;5075800;28;20285;-74
2022/05/12 08:01:10;;;;;;;8.48;2.70;;;;;;;-145.69;54.51;70787.56;5075410;28;20723;-74
2022/05/12 08:03:37;;;;;;;10.60;2.47;;;;;;;-145.69;56.67;70755.75;5075459;28;20230;-75
2022/05/12 08:06:03;;;;;;;3.97;2.60;;;;;;;-145.69;55.67;70757.72;5074985;28;20191;-75
2022/05/12 08:08:31;;;;;;;6.07;2.47;;;;;;;-145.69;54.38;70771.66;5074951;28;20191;-76
2022/05/12 08:10:58;;;;;;;6.05;2.90;;;;;;;-145.69;54.97;70755.75;5075468;28;20230;-75
2022/05/12 08:13:25;;;;;;;7.95;2.78;;;;;;;-145.69;56.35;70743.81;5074466;28;20434;-75
2022/05/12 08:15:53;;;;;;;9.43;2.50;;;;;;;-145.69;55.96;70706.00;5075290;28;20210;-76
2022/05/12 08:18:21;;;;;;;4.95;2.67;;;;;;;-145.69;54.61;70741.81;5075162;28;20703;-75
2022/05/12 08:20:48;;;;;;;5.93;2.60;;;;;;;-145.69;54.32;70737.84;5074537;28;20234;-75
2022/05/12 08:23:15;;;;;;;4.90;2.67;;;;;;;-145.69;53.92;70713.97;5074987;28;20641;-75
2022/05/12 08:25:44;;;;;;;11.18;2.90;;;;;;;-145.69;55.09;70749.78;5075160;28;20222;-75
2022/05/12 08:28:14;;;;;;;8.57;3.25;;;;;;;-145.69;54.94;70777.63;5074959;28;20722;-77
2022/05/12 08:30:40;;;;;;;9.38;2.78;;;;;;;-145.69;59.25;70753.75;5075088;28;20677;-75
2022/05/12 08:33:06;;;;;;;9.75;3.10;;;;;;;-145.69;56.70;70737.84;5074923;28;20207;-76
2022/05/12 08:35:33;;;;;;;7.53;2.80;;;;;;;-145.69;55.75;70749.78;5074747;28;20203;-75
2022/05/12 08:37:59;;;;;;;10.00;2.65;;;;;;;-145.69;55.15;70757.72;5073097;28;20726;-75
2022/05/12 08:40:38;;;;;;;3.83;2.20;;;;;;;-145.69;57.10;70721.91;5074806;28;20194;-76
2022/05/12 08:43:14;;;;;;;10.40;2.78;;;;;;;-145.69;58.98;70709.97;5074478;28;20234;-75
2022/05/12 08:45:41;;;;;;;5.80;2.60;;;;;;;-145.69;57.08;70632.38;5074732;28;20248;-76
2022/05/12 08:48:10;;;;;;;7.90;2.70;;;;;;;-145.69;58.28;70590.63;5073410;28;20908;-76
2022/05/12 08:50:39;;;;;;;7.13;3.03;;;;;;;-145.69;54.78;70582.66;5074452;28;20230;-76
2022/05/12 08:53:12;;;;;;;7.40;2.70;;;;;;;-145.69;54.51;70646.31;5074196;28;20522;-75
2022/05/12 08:55:44;;;;;;;4.97;2.70;;;;;;;-145.69;53.19;70634.38;5074436;28;20236;-76
2022/05/12 08:58:18;;;;;;;9.43;3.22;;;;;;;-145.69;54.19;70660.25;5074347;28;20210;-76
2022/05/12 09:00:52;;;;;;;6.18;2.97;;;;;;;-145.69;53.59;70580.66;5074267;28;20519;-76
2022/05/12 09:03:28;;;;;;;7.45;2.88;;;;;;;-145.69;53.25;70610.50;5073201;28;20728;-75
2022/05/12 09:06:01;;;;;;;4.65;3.05;;;;;;;-145.69;52.26;70594.59;5068343;28;20206;-76
2022/05/12 09:08:35;;;;;;;9.52;2.72;;;;;;;-145.69;52.37;70594.59;5055441;28;20233;-76
2022/05/12 09:11:05;;;;;;;9.95;2.95;;;;;;;-145.69;53.22;70592.59;5074076;28;20209;-75
2022/05/12 09:13:36;;;;;;;5.22;2.88;;;;;;;-145.69;53.58;70590.63;5074309;28;20203;-76
2022/05/12 09:16:12;;;;;;;6.75;2.70;;;;;;;-145.69;54.05;70618.47;5072487;28;20206;-76
2022/05/12 09:18:39;;;;;;;7.25;3.03;;;;;;;-145.69;53.75;70632.38;5072059;28;20296;-76
2022/05/12 09:21:08;;;;;;;6.90;3.28;;;;;;;-145.69;55.42;70658.25;5071155;28;20438;-75
2022/05/12 09:23:36;;;;;;;7.40;2.88;;;;;;;-145.69;55.98;70626.41;5071697;28;20230;-76
2022/05/12 09:26:39;;;;;;;6.25;3.70;;;;;;;-145.69;54.56;70668.19;5071735;28;20616;-75
2022/05/12 09:29:17;;;;;;;10.02;3.75;;;;;;;-145.69;54.28;70686.09;5072947;28;20198;-77
2022/05/12 09:31:46;;;;;;;10.27;4.65;;;;;;;-145.69;55.09;70670.19;5073689;28;20260;-75
2022/05/12 09:34:36;;;;;;;8.77;3.90;;;;;;;-145.69;54.31;70662.22;5073891;28;20199;-75
2022/05/12 09:37:18;;;;;;;7.88;3.80;;;;;;;-145.69;55.25;70650.28;5072197;28;20237;-75
2022/05/12 09:39:47;;;;;;;12.18;4.05;;;;;;;-145.69;54.45;70686.09;5073607;28;20206;-76
2022/05/12 09:42:27;;;;;;;8.93;4.20;;;;;;;-145.69;53.44;70694.06;5073219;28;20660;-75
2022/05/12 09:44:57;;;;;;;7.18;3.85;;;;;;;-145.69;54.46;70682.13;5073669;28;20665;-75
2022/05/12 09:47:25;;;;;;;8.98;3.97;;;;;;;-145.69;54.05;70636.38;5073495;28;20214;-75
2022/05/12 09:50:15;;;;;;;8.52;3.97;;;;;;;-145.69;57.05;70564.75;5073196;28;20758;-75
2022/05/12 09:52:39;;;;;;;10.90;4.20;;;;;;;-145.69;55.51;70495.13;5073129;28;20202;-75
2022/05/12 09:55:15;;;;;;;9.20;4.32;;;;;;;-145.69;50.62;70519.00;5072350;28;20474;-76
2022/05/12 09:57:48;;;;;;;9.23;4.28;;;;;;;-145.69;50.77;70558.78;5073117;28;20194;-77
2022/05/12 10:00:31;;;;;;;13.23;4.00;;;;;;;-145.69;51.50;70538.88;5073242;28;20645;-75
2022/05/12 10:08:42;;;;;;;6.88;4.00;;;;;;;-145.69;53.00;70578.69;5073077;28;20198;-74
2022/05/12 10:11:11;;;;;;;10.55;4.18;;;;;;;-145.69;51.37;70526.94;5073088;28;20587;-75
2022/05/12 10:13:43;;;;;;;8.18;3.58;;;;;;;-145.69;52.74;70528.94;5072955;28;20199;-76
2022/05/12 10:16:15;;;;;;;8.25;3.95;;;;;;;-145.69;54.47;70528.94;5073164;28;20199;-75
2022/05/12 10:18:47;;;;;;;5.32;4.00;;;;;;;-145.69;52.34;70564.75;5073130;28;20199;-74
2022/05/12 10:21:20;;;;;;;10.18;3.58;;;;;;;-145.69;50.97;70558.78;5073051;28;20199;-77
2022/05/12 10:23:52;;;;;;;8.65;4.05;;;;;;;-145.69;52.82;70532.91;5072821;28;20593;-75
2022/05/12 10:26:23;;;;;;;9.73;4.20;;;;;;;-145.69;51.91;70515.00;5072772;28;20538;-75
2022/05/12 10:28:53;;;;;;;11.70;4.40;;;;;;;-145.69;53.04;70507.06;5072742;28;20202;-74
2022/05/12 10:31:28;;;;;;;17.02;3.97;;;;;;;-145.69;52.10;70473.22;5073044;28;20202;-75
2022/05/12 10:34:14;;;;;;;6.70;3.80;;;;;;;-145.69;52.24;70546.84;5072921;28;20285;-74
2022/05/12 10:36:48;;;;;;;7.20;4.13;;;;;;;-145.69;51.96;70526.94;5073092;28;20206;-73
2022/05/12 10:39:21;;;;;;;7.75;4.38;;;;;;;-145.69;52.06;70513.03;5072844;28;20622;-75
2022/05/12 10:42:02;;;;;;;7.57;4.30;;;;;;;-145.69;54.34;70475.22;5072969;28;20207;-75
2022/05/12 10:44:59;;;;;;;6.32;3.67;;;;;;;-145.69;52.36;70522.97;5072475;28;20233;-75
2022/05/12 10:47:42;;;;;;;12.30;3.55;;;;;;;-145.69;52.93;70515.00;5072890;28;20199;-74
2022/05/12 10:50:18;;;;;;;6.95;3.80;;;;;;;-145.69;52.58;70483.19;5072477;28;20775;-75
2022/05/12 10:52:52;;;;;;;6.65;4.30;;;;;;;-145.69;51.90;70507.06;5072731;28;20198;-74
2022/05/12 10:55:26;;;;;;;7.78;4.10;;;;;;;-145.69;58.36;70475.22;5072481;28;20202;-75
2022/05/12 10:58:03;;;;;;;9.13;3.85;;;;;;;-145.69;53.26;70475.22;5072884;28;20241;-74
2022/05/12 11:00:38;;;;;;;9.88;4.50;;;;;;;-145.69;50.29;70487.16;5073248;28;20236;-74
2022/05/12 11:03:14;;;;;;;10.02;3.90;;;;;;;-145.69;51.88;70530.94;5075844;28;20507;-75
2022/05/12 11:05:44;;;;;;;10.07;4.05;;;;;;;-145.69;52.78;70550.81;5076087;28;20251;-74
2022/05/12 11:08:15;;;;;;;6.88;4.00;;;;;;;-145.69;53.32;70483.19;5074466;28;20194;-74
2022/05/12 11:10:47;;;;;;;6.93;3.92;;;;;;;-145.69;53.96;70475.22;5076479;28;20249;-74
2022/05/12 11:13:21;;;;;;;5.88;4.10;;;;;;;-145.69;53.98;70441.41;5076558;28;20269;-74
2022/05/12 11:15:54;;;;;;;10.05;4.50;;;;;;;-145.69;50.97;70475.22;5076237;28;20707;-75
2022/05/12 11:18:27;;;;;;;8.60;4.00;;;;;;;-145.69;51.41;70511.03;5076341;28;20191;-75
2022/05/12 11:21:02;;;;;;;11.48;4.70;;;;;;;-145.69;52.51;70419.53;5076410;28;20199;-75
2022/05/12 11:23:41;;;;;;;10.55;4.35;;;;;;;-145.69;50.41;70397.63;5076285;28;20222;-75
2022/05/12 11:26:19;;;;;;;9.60;4.30;;;;;;;-145.69;51.67;70437.44;5076223;28;20207;-75
2022/05/12 11:31:41;;;;;;;10.52;4.03;;;;;;;-145.69;49.30;70375.75;5076108;28;20214;-76
2022/05/12 11:34:12;;;;;;;7.43;4.10;;;;;;;-145.69;49.78;70399.63;5075847;28;20199;-75
2022/05/12 11:36:41;;;;;;;5.97;4.10;;;;;;;-145.69;49.55;70349.91;5075953;28;20203;-75
2022/05/12 11:39:27;;;;;;;7.25;3.88;;;;;;;-145.69;48.57;70333.97;5075833;28;20252;-74
2022/05/12 11:42:22;;;;;;;5.25;3.42;;;;;;;-145.69;49.42;70361.84;5075976;28;20202;-75
2022/05/12 11:44:57;;;;;;;11.07;4.32;;;;;;;-145.69;49.20;70351.88;5040030;28;20226;-76
2022/05/12 11:47:54;;;;;;;6.72;3.90;;;;;;;-145.69;48.72;70361.84;5075688;28;20652;-75